San Luis Valley Regional Bergman Field
KALS : now visible

Airfield :











YOU CAN JOIN US ON...

 
LOGIN :

Register | Disclaimer

   EN    FR    IT 

 









Legend :    VFR   Marginal VFR   IFR   Intensive IFR   Very Intensive IFR
Visi :
Ceiling :
>= 8 km
>= 3000ft
5 to 8 km
1000 to 3000 ft
1500m to 5 km
500 to 1000 ft
800 to 1500m
200 to 500 ft
< 800m
< 200 ft
Symbols :   Thunderstorms  Fog  Heavy snow  Heavy precipitations  Wind > 20 kt







- Airport Elevation : 7539 ft


KALS - San Luis Valley Regional Bergman Field

CURRENT METAR :
  • 191952Z AUTO 01011G22KT 300V030 10SM CLR 19/M09 A3023 RMK AO2 SLP179 T01941094

EXPIRED METARs :
  • 191852Z AUTO 00000KT 10SM CLR 16/M09 A3025 RMK AO2 SLP185 T01611094
  • 191752Z AUTO VRB04KT 10SM CLR 16/M09 A3028 RMK AO2 SLP194 T01561089 10161 21039 58012

TAF KALS
Valid from the 19 at 18:00 until the 20 at 18:00 UTC


191729Z 1918/2018 02008KT P6SM SKC
FM192000 32007KT P6SM SKC
FM200100 22006KT P6SM FEW080
FM200600 18006KT P6SM FEW200
KZDV FIR / North America



MET'MAP, your aeronautical weather chart ! - Copyright ORBIFLY December 2007 - Disclaimer

ORBIFLY MET'MAP TEAM :

Programming & Development : Alexandra Zaïnal
Concept & Development : Baudouin d'Aumeries
Co-Development & Prog : Marc-Olivier Méhu
Technical & hardware support : Manuel Goepfert

Contact : metmap@orbifly.com




SOURCES & CREDITS :

   NOAA       Earth
Advisory